Time;durP1;ratioP1;P1;durP2;ratioP2;P2;SDS_P1;SDS_P2;PMS_P1;PMS_P2;Temp;Humidity;BMP_temperature;BMP_pressure;BME280_temperature;BME280_humidity;BME280_pressure;Samples;Min_cycle;Max_cycle;Signal;HPM_P1;HPM_P2
2021/09/27 00:00:27;;;;;;;20.70;18.67;;;;;;;;;;4933238;28;20438;-73
2021/09/27 00:02:53;;;;;;;20.40;18.33;;;;;;;;;;4935624;28;20211;-73
2021/09/27 00:05:18;;;;;;;21.93;19.83;;;;;;;;;;4934942;28;20518;-72
2021/09/27 00:07:44;;;;;;;21.90;19.67;;;;;;;;;;4932959;28;20179;-73
2021/09/27 00:10:11;;;;;;;22.40;20.10;;;;;;;;;;4934237;28;20262;-72
2021/09/27 00:12:36;;;;;;;21.10;19.20;;;;;;;;;;4925363;28;20269;-73
2021/09/27 00:15:04;;;;;;;22.40;19.37;;;;;;;;;;4934853;28;20983;-73
2021/09/27 00:17:29;;;;;;;22.00;19.80;;;;;;;;;;4937470;28;20190;-73
2021/09/27 00:19:54;;;;;;;22.53;20.33;;;;;;;;;;4935319;28;20451;-73
2021/09/27 00:22:19;;;;;;;22.17;19.97;;;;;;;;;;4935143;28;20298;-73
2021/09/27 00:24:45;;;;;;;21.83;19.60;;;;;;;;;;4934843;28;20190;-72
2021/09/27 00:27:10;;;;;;;20.60;18.60;;;;;;;;;;4934726;28;20183;-73
2021/09/27 00:29:36;;;;;;;20.87;18.87;;;;;;;;;;4936576;28;20191;-72
2021/09/27 00:32:01;;;;;;;20.37;18.47;;;;;;;;;;4939062;28;20673;-73
2021/09/27 00:34:26;;;;;;;23.40;21.13;;;;;;;;;;4938242;28;20230;-73
2021/09/27 00:36:51;;;;;;;21.00;18.87;;;;;;;;;;4937107;28;20735;-73
2021/09/27 00:39:17;;;;;;;21.97;19.83;;;;;;;;;;4934619;28;20188;-73
2021/09/27 00:41:42;;;;;;;23.80;21.23;;;;;;;;;;4932201;28;20214;-73
2021/09/27 00:44:08;;;;;;;23.53;21.03;;;;;;;;;;4935906;28;20190;-73
2021/09/27 00:46:33;;;;;;;23.00;20.70;;;;;;;;;;4935866;28;20565;-73
2021/09/27 00:48:59;;;;;;;23.13;20.90;;;;;;;;;;4937946;28;20179;-73
2021/09/27 00:51:35;;;;;;;24.83;21.63;;;;;;;;;;4939939;28;20207;-73
2021/09/27 00:54:02;;;;;;;24.80;22.20;;;;;;;;;;4932979;28;20438;-73
2021/09/27 00:56:29;;;;;;;23.93;21.17;;;;;;;;;;4936033;28;20437;-72
2021/09/27 00:58:55;;;;;;;21.60;19.70;;;;;;;;;;4937776;28;20499;-72
2021/09/27 01:01:22;;;;;;;22.97;20.67;;;;;;;;;;4928371;28;20455;-73
2021/09/27 01:03:47;;;;;;;22.50;20.30;;;;;;;;;;4934928;28;20527;-72
2021/09/27 01:06:31;;;;;;;23.03;20.77;;;;;;;;;;4936922;28;20444;-72
2021/09/27 01:09:02;;;;;;;24.37;21.97;;;;;;;;;;4934353;28;20179;-72
2021/09/27 01:11:28;;;;;;;22.30;20.03;;;;;;;;;;4934184;28;20467;-72
2021/09/27 01:14:02;;;;;;;24.90;22.30;;;;;;;;;;4933763;28;20431;-73
2021/09/27 01:16:30;;;;;;;23.13;20.80;;;;;;;;;;4933130;28;20694;-73
2021/09/27 01:19:04;;;;;;;24.00;21.57;;;;;;;;;;4932916;28;20455;-73
2021/09/27 01:21:32;;;;;;;23.47;21.07;;;;;;;;;;4934084;28;20447;-73
2021/09/27 01:24:16;;;;;;;22.00;19.70;;;;;;;;;;4932982;28;20947;-73
2021/09/27 01:26:50;;;;;;;21.50;19.50;;;;;;;;;;4931755;28;20458;-73
2021/09/27 01:29:15;;;;;;;21.70;19.60;;;;;;;;;;4932102;28;20439;-72
2021/09/27 01:31:59;;;;;;;22.17;19.87;;;;;;;;;;4932124;28;20458;-73
2021/09/27 01:34:27;;;;;;;24.37;21.67;;;;;;;;;;4933999;28;20179;-73
2021/09/27 01:37:08;;;;;;;22.93;20.70;;;;;;;;;;4934163;28;20473;-73
2021/09/27 01:39:43;;;;;;;23.67;21.23;;;;;;;;;;4932724;28;21152;-73
2021/09/27 01:42:17;;;;;;;23.37;20.97;;;;;;;;;;4931306;28;20489;-73
2021/09/27 01:44:45;;;;;;;22.47;20.27;;;;;;;;;;4935635;28;20439;-73
2021/09/27 01:47:17;;;;;;;23.63;21.27;;;;;;;;;;4936503;28;20894;-73
2021/09/27 01:49:47;;;;;;;22.70;20.30;;;;;;;;;;4938363;28;20442;-73
2021/09/27 01:52:35;;;;;;;24.83;20.77;;;;;;;;;;4941094;28;20581;-73
2021/09/27 01:55:04;;;;;;;22.20;20.10;;;;;;;;;;4944540;28;20913;-73
2021/09/27 01:57:48;;;;;;;24.30;21.73;;;;;;;;;;4940972;28;20446;-73
2021/09/27 02:00:16;;;;;;;23.83;21.43;;;;;;;;;;4942045;28;20501;-73
2021/09/27 02:02:44;;;;;;;24.07;21.50;;;;;;;;;;4940617;28;20498;-73
2021/09/27 02:05:12;;;;;;;23.27;20.87;;;;;;;;;;4941190;28;20447;-73
2021/09/27 02:07:41;;;;;;;23.07;20.13;;;;;;;;;;4938828;28;20495;-73
2021/09/27 02:10:12;;;;;;;21.90;19.70;;;;;;;;;;4946333;28;20823;-73
2021/09/27 02:12:40;;;;;;;21.97;19.83;;;;;;;;;;4938607;28;20474;-73
2021/09/27 02:15:06;;;;;;;23.13;20.73;;;;;;;;;;4948530;28;20455;-73
2021/09/27 02:17:42;;;;;;;20.87;18.73;;;;;;;;;;4937599;28;20450;-73
2021/09/27 02:20:08;;;;;;;20.73;18.57;;;;;;;;;;4944802;28;20269;-73
2021/09/27 02:22:48;;;;;;;22.07;19.70;;;;;;;;;;4939824;28;20539;-73
2021/09/27 02:25:16;;;;;;;21.67;19.33;;;;;;;;;;4941701;28;20184;-73
2021/09/27 02:27:42;;;;;;;20.13;18.23;;;;;;;;;;4937932;28;20556;-73
2021/09/27 02:30:10;;;;;;;22.03;19.93;;;;;;;;;;4943091;28;20439;-73
2021/09/27 02:32:38;;;;;;;20.87;18.83;;;;;;;;;;4946666;28;20206;-72
2021/09/27 02:35:21;;;;;;;20.70;18.70;;;;;;;;;;4947609;28;20489;-72
2021/09/27 02:37:56;;;;;;;21.87;19.47;;;;;;;;;;4938326;28;20953;-72
2021/09/27 02:40:26;;;;;;;21.93;19.23;;;;;;;;;;4940091;28;20502;-73
2021/09/27 02:42:57;;;;;;;20.60;18.40;;;;;;;;;;4937441;28;21001;-73
2021/09/27 02:45:23;;;;;;;22.50;18.60;;;;;;;;;;4941565;29;20435;-74
2021/09/27 02:47:57;;;;;;;20.20;18.20;;;;;;;;;;4941212;28;20528;-73
2021/09/27 02:50:26;;;;;;;20.43;18.33;;;;;;;;;;4936587;28;20462;-73
2021/09/27 02:52:51;;;;;;;24.30;21.70;;;;;;;;;;4943469;28;21188;-73
2021/09/27 02:55:20;;;;;;;26.67;19.10;;;;;;;;;;4941024;29;20458;-73
2021/09/27 02:57:55;;;;;;;24.63;20.47;;;;;;;;;;4937996;28;20244;-73
2021/09/27 03:00:43;;;;;;;22.63;19.20;;;;;;;;;;4935868;28;20435;-73
2021/09/27 03:03:09;;;;;;;20.67;18.60;;;;;;;;;;4934853;28;20486;-73
2021/09/27 03:05:53;;;;;;;22.20;19.87;;;;;;;;;;4935632;28;20437;-73
2021/09/27 03:08:18;;;;;;;20.70;18.50;;;;;;;;;;4941679;28;20187;-72
2021/09/27 03:10:55;;;;;;;22.67;20.27;;;;;;;;;;4932642;28;20441;-72
2021/09/27 03:13:24;;;;;;;21.13;19.03;;;;;;;;;;4936148;28;20168;-72
2021/09/27 03:16:07;;;;;;;22.20;19.80;;;;;;;;;;4941409;28;20524;-72
2021/09/27 03:18:48;;;;;;;20.37;18.40;;;;;;;;;;4937856;28;20485;-73
2021/09/27 03:21:13;;;;;;;18.43;16.73;;;;;;;;;;4936482;28;20497;-72
2021/09/27 03:23:38;;;;;;;19.33;17.37;;;;;;;;;;4937579;28;20498;-73
2021/09/27 03:26:22;;;;;;;19.27;17.27;;;;;;;;;;4939131;28;20258;-72
2021/09/27 03:28:57;;;;;;;19.40;17.37;;;;;;;;;;4948335;28;20215;-72
2021/09/27 03:31:28;;;;;;;22.57;18.93;;;;;;;;;;4935953;28;20462;-72
2021/09/27 03:34:13;;;;;;;19.00;17.13;;;;;;;;;;4938509;28;20471;-73
2021/09/27 03:36:47;;;;;;;19.70;17.70;;;;;;;;;;4939919;28;20545;-73
2021/09/27 03:39:36;;;;;;;19.23;17.30;;;;;;;;;;4936920;28;20450;-72
2021/09/27 03:42:04;;;;;;;22.63;20.23;;;;;;;;;;4935790;28;21422;-73
2021/09/27 03:44:29;;;;;;;19.20;17.07;;;;;;;;;;4934959;28;20441;-73
2021/09/27 03:46:55;;;;;;;19.63;17.50;;;;;;;;;;4936573;28;20434;-72
2021/09/27 03:49:27;;;;;;;20.90;18.60;;;;;;;;;;4936566;28;20184;-72
2021/09/27 03:52:02;;;;;;;19.57;17.50;;;;;;;;;;4933841;28;20290;-72
2021/09/27 03:54:51;;;;;;;19.23;17.30;;;;;;;;;;4938340;28;20458;-72
2021/09/27 03:57:28;;;;;;;18.63;16.40;;;;;;;;;;4946425;28;20501;-72
2021/09/27 03:59:53;;;;;;;17.80;16.10;;;;;;;;;;4934082;28;20806;-72
2021/09/27 04:02:21;;;;;;;24.87;17.17;;;;;;;;;;4931192;28;20474;-72
2021/09/27 04:04:49;;;;;;;17.70;15.90;;;;;;;;;;4938192;28;20203;-73
2021/09/27 04:07:26;;;;;;;18.37;16.47;;;;;;;;;;4937885;28;20445;-72
2021/09/27 04:10:03;;;;;;;17.67;16.07;;;;;;;;;;4936841;28;20430;-72
2021/09/27 04:12:47;;;;;;;16.53;14.97;;;;;;;;;;4935945;28;20486;-73
2021/09/27 04:15:15;;;;;;;19.43;17.37;;;;;;;;;;4933194;28;21038;-74
2021/09/27 04:17:41;;;;;;;17.70;15.63;;;;;;;;;;4937664;28;20489;-73
2021/09/27 04:20:09;;;;;;;17.20;15.40;;;;;;;;;;4934491;28;21127;-72
2021/09/27 04:22:49;;;;;;;19.50;15.83;;;;;;;;;;4936299;28;20688;-73
2021/09/27 04:25:26;;;;;;;18.87;17.10;;;;;;;;;;4937875;28;20473;-73
2021/09/27 04:27:58;;;;;;;17.30;15.60;;;;;;;;;;4936082;28;21008;-73
2021/09/27 04:30:31;;;;;;;17.80;16.00;;;;;;;;;;4934543;28;20848;-73
2021/09/27 04:32:56;;;;;;;19.90;17.87;;;;;;;;;;4934348;28;20488;-73
2021/09/27 04:35:28;;;;;;;19.10;17.13;;;;;;;;;;4935763;28;20455;-73
2021/09/27 04:37:53;;;;;;;18.37;16.37;;;;;;;;;;4936448;28;20270;-73
2021/09/27 04:40:23;;;;;;;18.83;16.93;;;;;;;;;;4935255;28;20521;-73
2021/09/27 04:42:49;;;;;;;17.83;15.83;;;;;;;;;;4934513;28;20218;-73
2021/09/27 04:45:24;;;;;;;18.50;16.67;;;;;;;;;;4934039;28;20784;-73
2021/09/27 04:47:49;;;;;;;19.50;17.57;;;;;;;;;;4936244;28;20479;-73
2021/09/27 04:50:33;;;;;;;17.40;15.70;;;;;;;;;;4935722;28;20443;-73
2021/09/27 04:53:29;;;;;;;19.63;17.50;;;;;;;;;;4935131;28;20207;-72
2021/09/27 04:55:57;;;;;;;20.30;16.30;;;;;;;;;;4932051;28;20454;-74
2021/09/27 04:58:38;;;;;;;18.77;16.70;;;;;;;;;;4934814;28;20441;-73
2021/09/27 05:01:05;;;;;;;18.17;16.27;;;;;;;;;;4932158;28;20447;-72
2021/09/27 05:03:38;;;;;;;16.80;14.93;;;;;;;;;;4935551;28;20463;-73
2021/09/27 05:06:13;;;;;;;18.60;16.17;;;;;;;;;;4932139;28;20470;-73
2021/09/27 05:08:38;;;;;;;18.33;16.53;;;;;;;;;;4936256;28;20819;-73
2021/09/27 05:11:22;;;;;;;18.33;16.43;;;;;;;;;;4937644;28;20448;-73
2021/09/27 05:13:50;;;;;;;20.77;16.00;;;;;;;;;;4936629;28;20188;-73
2021/09/27 05:16:15;;;;;;;18.60;14.43;;;;;;;;;;4935470;28;20467;-73
2021/09/27 05:19:16;;;;;;;17.80;15.90;;;;;;;;;;4933017;28;20542;-72
2021/09/27 05:21:58;;;;;;;16.00;14.40;;;;;;;;;;4935602;28;20273;-73
2021/09/27 05:24:30;;;;;;;16.40;14.80;;;;;;;;;;4937825;28;20470;-72
2021/09/27 05:27:08;;;;;;;16.37;14.83;;;;;;;;;;4933782;28;20422;-72
2021/09/27 05:29:34;;;;;;;16.23;14.63;;;;;;;;;;4934660;28;21046;-74
2021/09/27 05:31:59;;;;;;;18.00;15.30;;;;;;;;;;4935353;28;20671;-73
2021/09/27 05:34:35;;;;;;;16.13;14.43;;;;;;;;;;4928778;28;20187;-73
2021/09/27 05:37:01;;;;;;;16.43;13.20;;;;;;;;;;4931051;28;20187;-74
2021/09/27 05:39:41;;;;;;;15.37;13.60;;;;;;;;;;4934823;28;20801;-74
2021/09/27 05:42:18;;;;;;;20.13;14.83;;;;;;;;;;4941015;28;20202;-74
2021/09/27 05:45:10;;;;;;;17.00;15.33;;;;;;;;;;4937924;28;20454;-75
2021/09/27 05:47:53;;;;;;;16.30;14.30;;;;;;;;;;4934907;28;20591;-75
2021/09/27 05:50:25;;;;;;;16.70;15.00;;;;;;;;;;4932345;28;20469;-73
2021/09/27 05:52:53;;;;;;;19.03;15.10;;;;;;;;;;4937397;28;20590;-73
2021/09/27 05:55:50;;;;;;;17.03;15.23;;;;;;;;;;4932084;28;20434;-73
2021/09/27 05:58:25;;;;;;;16.40;14.70;;;;;;;;;;4935078;28;20444;-74
2021/09/27 06:00:59;;;;;;;16.53;14.83;;;;;;;;;;4933598;28;20446;-74
2021/09/27 06:03:32;;;;;;;17.20;15.40;;;;;;;;;;4937637;28;20457;-73
2021/09/27 06:06:16;;;;;;;16.20;14.50;;;;;;;;;;4935009;28;20434;-73
2021/09/27 06:08:50;;;;;;;17.60;15.70;;;;;;;;;;4934076;28;20435;-74
2021/09/27 06:11:30;;;;;;;16.13;14.57;;;;;;;;;;4936496;28;20551;-74
2021/09/27 06:13:56;;;;;;;16.10;14.50;;;;;;;;;;4935010;28;20542;-74
2021/09/27 06:16:24;;;;;;;18.37;15.63;;;;;;;;;;4935483;28;21110;-73
2021/09/27 06:18:57;;;;;;;17.00;15.20;;;;;;;;;;4932408;28;20443;-74
2021/09/27 06:21:28;;;;;;;16.73;15.03;;;;;;;;;;4934361;28;20462;-74
2021/09/27 06:24:01;;;;;;;17.30;15.50;;;;;;;;;;4931596;28;20997;-74
2021/09/27 06:26:28;;;;;;;17.37;15.57;;;;;;;;;;4935762;28;20445;-74
2021/09/27 06:29:06;;;;;;;19.23;16.67;;;;;;;;;;4936773;28;20456;-74
2021/09/27 06:31:41;;;;;;;19.30;15.90;;;;;;;;;;4937335;28;20470;-73
2021/09/27 06:34:09;;;;;;;21.73;16.67;;;;;;;;;;4936306;28;20442;-75
2021/09/27 06:36:35;;;;;;;26.20;19.23;;;;;;;;;;4939074;28;20454;-75
2021/09/27 06:39:03;;;;;;;19.10;17.10;;;;;;;;;;4942031;28;20448;-74
2021/09/27 06:41:30;;;;;;;18.20;16.20;;;;;;;;;;4941788;28;20269;-74
2021/09/27 06:43:55;;;;;;;20.40;18.30;;;;;;;;;;4936461;28;20470;-74
2021/09/27 06:46:20;;;;;;;20.87;18.60;;;;;;;;;;4940945;28;20852;-75
2021/09/27 06:48:46;;;;;;;20.67;18.60;;;;;;;;;;4937847;28;20207;-75
2021/09/27 06:51:12;;;;;;;26.17;21.27;;;;;;;;;;4940107;28;20214;-74
2021/09/27 06:53:37;;;;;;;22.73;20.00;;;;;;;;;;4937729;29;20494;-75
2021/09/27 06:56:02;;;;;;;23.90;19.77;;;;;;;;;;4941985;28;20179;-74
2021/09/27 06:58:28;;;;;;;25.30;17.90;;;;;;;;;;4939282;28;20187;-74
2021/09/27 07:00:54;;;;;;;26.60;20.70;;;;;;;;;;4935039;28;21657;-75
2021/09/27 07:03:19;;;;;;;21.97;18.57;;;;;;;;;;4936178;28;20699;-74
2021/09/27 07:05:44;;;;;;;25.60;20.77;;;;;;;;;;4934496;28;20438;-74
2021/09/27 07:08:10;;;;;;;29.70;20.53;;;;;;;;;;4951069;28;20254;-74
2021/09/27 07:10:35;;;;;;;26.50;19.93;;;;;;;;;;4942215;28;20187;-75
2021/09/27 07:13:00;;;;;;;21.60;19.40;;;;;;;;;;4937327;28;20194;-76
2021/09/27 07:15:25;;;;;;;23.33;19.63;;;;;;;;;;4934546;28;20193;-75
2021/09/27 07:17:51;;;;;;;27.37;20.97;;;;;;;;;;4941691;28;20226;-76
2021/09/27 07:20:19;;;;;;;22.97;19.67;;;;;;;;;;4936739;28;20234;-75
2021/09/27 07:22:44;;;;;;;22.13;19.10;;;;;;;;;;4938048;28;20261;-75
2021/09/27 07:25:10;;;;;;;26.43;20.20;;;;;;;;;;4940242;28;20439;-76
2021/09/27 07:27:35;;;;;;;23.13;19.93;;;;;;;;;;4939606;28;20229;-75
2021/09/27 07:30:00;;;;;;;23.83;20.40;;;;;;;;;;4938035;28;20211;-76
2021/09/27 07:32:26;;;;;;;28.43;20.20;;;;;;;;;;4931707;28;20234;-75
2021/09/27 07:34:51;;;;;;;29.43;22.67;;;;;;;;;;4934976;28;20179;-75
2021/09/27 07:37:16;;;;;;;26.97;22.40;;;;;;;;;;4938054;28;20300;-75
2021/09/27 07:39:42;;;;;;;24.70;21.20;;;;;;;;;;4935607;28;21586;-73
2021/09/27 07:42:07;;;;;;;24.53;21.33;;;;;;;;;;4934299;28;20208;-74
2021/09/27 07:44:33;;;;;;;26.60;22.10;;;;;;;;;;4937502;28;20184;-73
2021/09/27 07:46:58;;;;;;;22.23;19.70;;;;;;;;;;4934896;28;20255;-75
2021/09/27 07:49:23;;;;;;;29.60;19.97;;;;;;;;;;4938398;28;20443;-75
2021/09/27 07:51:50;;;;;;;24.90;19.70;;;;;;;;;;4933505;28;20199;-75
2021/09/27 07:54:15;;;;;;;28.43;22.10;;;;;;;;;;4934839;28;20187;-75
2021/09/27 07:56:40;;;;;;;24.23;19.50;;;;;;;;;;4929614;28;20438;-74
2021/09/27 07:59:06;;;;;;;21.63;19.40;;;;;;;;;;4946186;28;20227;-74
2021/09/27 08:01:33;;;;;;;27.20;20.60;;;;;;;;;;4934337;28;20207;-74
2021/09/27 08:03:58;;;;;;;25.50;18.70;;;;;;;;;;4937626;28;20499;-75
2021/09/27 08:06:23;;;;;;;26.33;20.17;;;;;;;;;;4931617;28;20471;-75
2021/09/27 08:08:48;;;;;;;24.40;19.97;;;;;;;;;;4936985;28;20218;-76
2021/09/27 08:11:14;;;;;;;24.53;19.50;;;;;;;;;;4939921;28;20213;-75
2021/09/27 08:13:39;;;;;;;24.03;20.10;;;;;;;;;;4935331;28;20197;-75
2021/09/27 08:16:04;;;;;;;24.53;19.63;;;;;;;;;;4939273;28;20184;-75
2021/09/27 08:18:29;;;;;;;25.13;18.17;;;;;;;;;;4941950;28;20583;-75
2021/09/27 08:20:56;;;;;;;21.70;19.10;;;;;;;;;;4935587;28;20206;-75
2021/09/27 08:23:22;;;;;;;23.03;19.03;;;;;;;;;;4933377;28;20249;-74
2021/09/27 08:25:47;;;;;;;25.33;19.37;;;;;;;;;;4935443;28;20443;-73
2021/09/27 08:28:14;;;;;;;23.27;20.77;;;;;;;;;;4934533;28;20188;-73
2021/09/27 08:30:42;;;;;;;23.83;20.70;;;;;;;;;;4933613;28;20274;-75
2021/09/27 08:33:07;;;;;;;28.00;21.73;;;;;;;;;;4934001;28;21662;-74
2021/09/27 08:35:33;;;;;;;28.70;21.87;;;;;;;;;;4935020;28;20526;-74
2021/09/27 08:38:00;;;;;;;25.83;22.03;;;;;;;;;;4934504;28;20215;-74
2021/09/27 08:40:32;;;;;;;25.13;22.10;;;;;;;;;;4936956;28;21010;-75
2021/09/27 08:42:58;;;;;;;30.17;23.53;;;;;;;;;;4935113;28;20486;-75
2021/09/27 08:45:25;;;;;;;25.77;21.80;;;;;;;;;;4934555;28;21118;-74
2021/09/27 08:47:59;;;;;;;26.20;23.07;;;;;;;;;;4935796;28;20489;-75
2021/09/27 08:50:31;;;;;;;26.37;22.40;;;;;;;;;;4938684;28;20525;-74
2021/09/27 08:53:08;;;;;;;26.57;22.30;;;;;;;;;;4933542;28;20462;-73
2021/09/27 08:55:35;;;;;;;25.37;22.43;;;;;;;;;;4934908;28;20500;-75
2021/09/27 08:58:23;;;;;;;26.67;23.77;;;;;;;;;;4935420;28;20443;-74
2021/09/27 09:00:52;;;;;;;29.50;23.30;;;;;;;;;;4937556;28;20458;-74
2021/09/27 09:03:17;;;;;;;28.87;24.10;;;;;;;;;;4933403;28;20474;-75
2021/09/27 09:05:52;;;;;;;27.00;23.90;;;;;;;;;;4937638;28;20865;-75
2021/09/27 09:08:17;;;;;;;25.70;22.93;;;;;;;;;;4936125;28;20257;-74
2021/09/27 09:10:45;;;;;;;25.60;22.50;;;;;;;;;;4934250;28;20955;-75
2021/09/27 09:13:13;;;;;;;24.33;21.43;;;;;;;;;;4934298;28;20187;-72
2021/09/27 09:15:40;;;;;;;23.90;21.43;;;;;;;;;;4934254;28;20450;-74
2021/09/27 09:18:09;;;;;;;26.17;21.67;;;;;;;;;;4936372;28;20579;-73
2021/09/27 09:20:34;;;;;;;25.80;19.20;;;;;;;;;;4935400;28;20444;-73
2021/09/27 09:22:59;;;;;;;22.43;20.13;;;;;;;;;;4934628;28;20485;-73
2021/09/27 09:25:29;;;;;;;19.13;17.20;;;;;;;;;;4937268;28;20250;-73
2021/09/27 09:27:55;;;;;;;22.13;19.70;;;;;;;;;;4933744;28;20191;-74
2021/09/27 09:30:26;;;;;;;19.47;17.47;;;;;;;;;;4935323;28;20438;-73
2021/09/27 09:32:52;;;;;;;21.30;19.10;;;;;;;;;;4938595;28;20226;-73
2021/09/27 09:35:22;;;;;;;21.30;19.20;;;;;;;;;;4933637;28;20449;-72
2021/09/27 09:38:01;;;;;;;20.33;17.73;;;;;;;;;;4935566;28;20437;-73
2021/09/27 09:40:29;;;;;;;19.47;17.60;;;;;;;;;;4933982;28;21209;-73
2021/09/27 09:42:56;;;;;;;18.40;16.43;;;;;;;;;;4933719;28;20471;-72
2021/09/27 09:45:24;;;;;;;19.60;17.67;;;;;;;;;;4932667;28;20431;-72
2021/09/27 09:47:49;;;;;;;19.97;17.10;;;;;;;;;;4935196;28;20450;-74
2021/09/27 09:50:27;;;;;;;19.93;16.40;;;;;;;;;;4932345;28;20428;-73
2021/09/27 09:52:57;;;;;;;17.33;15.60;;;;;;;;;;4933490;29;20206;-74
2021/09/27 09:55:28;;;;;;;19.00;17.10;;;;;;;;;;4935965;28;20960;-74
2021/09/27 09:57:59;;;;;;;19.93;17.90;;;;;;;;;;4933683;28;20436;-74
2021/09/27 10:00:36;;;;;;;18.33;16.50;;;;;;;;;;4933996;28;20514;-73
2021/09/27 10:03:02;;;;;;;20.00;15.97;;;;;;;;;;4934811;28;20465;-73
2021/09/27 10:05:39;;;;;;;18.20;15.87;;;;;;;;;;4934177;28;20481;-73
2021/09/27 10:08:05;;;;;;;17.73;14.47;;;;;;;;;;4934082;28;20419;-73
2021/09/27 10:10:38;;;;;;;16.23;14.70;;;;;;;;;;4935836;28;20431;-73
2021/09/27 10:13:06;;;;;;;17.97;15.77;;;;;;;;;;4939848;28;20513;-72
2021/09/27 10:15:34;;;;;;;17.00;15.30;;;;;;;;;;4937978;28;20473;-73
2021/09/27 10:17:59;;;;;;;16.47;13.90;;;;;;;;;;4938991;28;20438;-73
2021/09/27 10:20:30;;;;;;;14.90;13.50;;;;;;;;;;4938204;28;20813;-73
2021/09/27 10:22:58;;;;;;;19.53;14.90;;;;;;;;;;4972546;23;20312;-77
2021/09/27 10:25:26;;;;;;;15.80;14.00;;;;;;;;;;4993527;28;20446;-77
2021/09/27 10:27:51;;;;;;;16.17;14.13;;;;;;;;;;4991005;28;20448;-77
2021/09/27 10:30:29;;;;;;;15.50;13.80;;;;;;;;;;4988775;28;20450;-76
2021/09/27 10:32:56;;;;;;;13.73;12.43;;;;;;;;;;4981224;28;20213;-77
2021/09/27 10:35:24;;;;;;;19.30;15.00;;;;;;;;;;4974199;28;20476;-75
2021/09/27 10:37:53;;;;;;;20.30;14.33;;;;;;;;;;4975965;28;20555;-77
2021/09/27 10:40:19;;;;;;;15.77;14.10;;;;;;;;;;4971949;28;20484;-77
2021/09/27 10:42:48;;;;;;;19.53;15.43;;;;;;;;;;4976132;28;20991;-75
2021/09/27 10:45:14;;;;;;;12.60;11.40;;;;;;;;;;4973710;28;20191;-76
2021/09/27 10:47:42;;;;;;;15.77;14.07;;;;;;;;;;4973396;28;20429;-76
2021/09/27 10:50:08;;;;;;;14.47;12.53;;;;;;;;;;4981142;28;20425;-77
2021/09/27 10:52:49;;;;;;;14.70;13.13;;;;;;;;;;4973532;28;20805;-76
2021/09/27 10:55:17;;;;;;;17.70;13.27;;;;;;;;;;4973759;28;20439;-77
2021/09/27 10:57:56;;;;;;;14.03;12.53;;;;;;;;;;4971814;28;20655;-76
2021/09/27 11:00:24;;;;;;;13.67;12.40;;;;;;;;;;4971400;28;20440;-75
2021/09/27 11:02:54;;;;;;;14.87;13.30;;;;;;;;;;4971767;28;20487;-77
2021/09/27 11:05:38;;;;;;;18.67;14.20;;;;;;;;;;4977368;28;20910;-77
2021/09/27 11:08:11;;;;;;;18.43;14.13;;;;;;;;;;4970934;28;20499;-76
2021/09/27 11:10:44;;;;;;;14.20;12.73;;;;;;;;;;4967186;28;20421;-76
2021/09/27 11:13:17;;;;;;;13.67;12.27;;;;;;;;;;4969923;28;20527;-77
2021/09/27 11:15:51;;;;;;;14.70;13.20;;;;;;;;;;4970072;28;20441;-76
2021/09/27 11:18:29;;;;;;;16.17;12.43;;;;;;;;;;4974579;28;20459;-76
2021/09/27 11:20:54;;;;;;;13.23;11.80;;;;;;;;;;4975491;28;20441;-77
2021/09/27 11:23:28;;;;;;;13.50;12.13;;;;;;;;;;4979537;28;20475;-78
2021/09/27 11:26:05;;;;;;;14.37;12.53;;;;;;;;;;4969453;28;20177;-77
2021/09/27 11:28:40;;;;;;;12.97;11.73;;;;;;;;;;4974309;28;21023;-77
2021/09/27 11:31:24;;;;;;;14.70;12.70;;;;;;;;;;4970935;28;20454;-77
2021/09/27 11:34:09;;;;;;;12.10;10.90;;;;;;;;;;4969018;28;20647;-77
2021/09/27 11:36:46;;;;;;;12.70;11.37;;;;;;;;;;4974612;28;20440;-77
2021/09/27 11:39:16;;;;;;;11.50;10.40;;;;;;;;;;4979964;28;20436;-77
2021/09/27 11:42:01;;;;;;;12.43;11.23;;;;;;;;;;4974879;28;20480;-76
2021/09/27 11:44:30;;;;;;;12.07;10.77;;;;;;;;;;4976322;28;20448;-76
2021/09/27 11:47:09;;;;;;;13.20;12.00;;;;;;;;;;4975632;28;20475;-76
2021/09/27 11:50:00;;;;;;;14.43;11.20;;;;;;;;;;4976323;28;20440;-78
2021/09/27 11:52:26;;;;;;;13.60;12.30;;;;;;;;;;4975501;28;20523;-77
2021/09/27 11:54:59;;;;;;;13.33;11.97;;;;;;;;;;4979344;28;20950;-78
2021/09/27 11:57:28;;;;;;;14.03;12.83;;;;;;;;;;4968975;28;20621;-75
2021/09/27 12:00:06;;;;;;;12.93;11.10;;;;;;;;;;4971128;28;20459;-75
2021/09/27 12:02:51;;;;;;;11.13;10.13;;;;;;;;;;4974709;28;20469;-77
2021/09/27 12:05:19;;;;;;;10.07;9.17;;;;;;;;;;4976900;28;22576;-76
2021/09/27 12:07:57;;;;;;;11.77;10.77;;;;;;;;;;4976524;28;20468;-78
2021/09/27 12:10:25;;;;;;;11.17;10.20;;;;;;;;;;4979891;28;20428;-77
2021/09/27 12:12:52;;;;;;;11.93;10.73;;;;;;;;;;4979006;28;20462;-78
2021/09/27 12:15:21;;;;;;;12.13;10.93;;;;;;;;;;4978430;28;20962;-77
2021/09/27 12:17:46;;;;;;;12.40;10.97;;;;;;;;;;4978453;28;20933;-77
2021/09/27 12:20:14;;;;;;;12.53;11.20;;;;;;;;;;4978748;28;20465;-76
2021/09/27 12:22:48;;;;;;;12.27;11.07;;;;;;;;;;4973789;28;20222;-77
2021/09/27 12:25:17;;;;;;;11.50;10.33;;;;;;;;;;4977638;28;20456;-77
2021/09/27 12:27:51;;;;;;;12.07;9.23;;;;;;;;;;4978387;28;20523;-76
2021/09/27 12:30:16;;;;;;;10.40;9.40;;;;;;;;;;4980039;28;20452;-75
2021/09/27 12:32:51;;;;;;;9.97;9.07;;;;;;;;;;4979599;28;21961;-77
2021/09/27 12:35:46;;;;;;;10.00;9.10;;;;;;;;;;4976135;28;20247;-75
2021/09/27 12:38:11;;;;;;;10.53;9.60;;;;;;;;;;4966392;28;20504;-77
2021/09/27 12:40:41;;;;;;;8.70;7.80;;;;;;;;;;4975326;28;20449;-76
2021/09/27 12:43:14;;;;;;;10.50;9.40;;;;;;;;;;4974646;28;20631;-76
2021/09/27 12:45:42;;;;;;;10.40;9.30;;;;;;;;;;4970425;28;20452;-76
2021/09/27 12:48:09;;;;;;;10.00;8.40;;;;;;;;;;4973495;28;20952;-76
2021/09/27 12:50:36;;;;;;;8.83;7.93;;;;;;;;;;4972709;28;20434;-77
2021/09/27 12:53:07;;;;;;;9.63;8.73;;;;;;;;;;4973549;28;20445;-76
2021/09/27 12:56:02;;;;;;;9.43;8.33;;;;;;;;;;4973675;28;20437;-76
2021/09/27 12:58:35;;;;;;;10.73;8.90;;;;;;;;;;4971924;28;20465;-76
2021/09/27 13:01:01;;;;;;;10.80;9.70;;;;;;;;;;4973154;28;20793;-77
2021/09/27 13:03:28;;;;;;;9.90;9.00;;;;;;;;;;4974829;28;20499;-77
2021/09/27 13:05:56;;;;;;;9.80;8.90;;;;;;;;;;4976228;28;20507;-77
2021/09/27 13:08:26;;;;;;;9.47;8.57;;;;;;;;;;4978159;28;20525;-77
2021/09/27 13:10:54;;;;;;;10.63;9.30;;;;;;;;;;4976795;28;20436;-77
2021/09/27 13:13:46;;;;;;;10.93;9.67;;;;;;;;;;4974855;28;20457;-77
2021/09/27 13:16:11;;;;;;;10.23;9.23;;;;;;;;;;4977731;28;20535;-75
2021/09/27 13:18:41;;;;;;;13.53;10.10;;;;;;;;;;4977445;28;20861;-77
2021/09/27 13:21:09;;;;;;;11.73;10.53;;;;;;;;;;4976838;28;20178;-76
2021/09/27 13:23:42;;;;;;;9.97;9.03;;;;;;;;;;4976155;28;20534;-77
2021/09/27 13:26:21;;;;;;;10.20;9.20;;;;;;;;;;4976528;28;20922;-76
2021/09/27 13:28:52;;;;;;;10.07;8.90;;;;;;;;;;4966528;28;20707;-76
2021/09/27 13:31:19;;;;;;;11.27;10.30;;;;;;;;;;4979387;28;20437;-77
2021/09/27 13:33:50;;;;;;;9.87;8.97;;;;;;;;;;4973687;28;20570;-76
2021/09/27 13:36:27;;;;;;;9.40;8.50;;;;;;;;;;4975074;28;20481;-76
2021/09/27 13:38:57;;;;;;;10.37;9.47;;;;;;;;;;4973034;28;20918;-76
2021/09/27 13:41:24;;;;;;;13.43;9.43;;;;;;;;;;4976616;28;20429;-75
2021/09/27 13:43:50;;;;;;;12.40;11.10;;;;;;;;;;4974919;28;20465;-76
2021/09/27 13:46:17;;;;;;;13.60;10.47;;;;;;;;;;4979634;28;20865;-77
2021/09/27 13:48:42;;;;;;;10.57;9.67;;;;;;;;;;4972125;28;22053;-77
2021/09/27 13:51:08;;;;;;;10.10;9.10;;;;;;;;;;4975647;28;20436;-76
2021/09/27 13:53:40;;;;;;;10.70;9.70;;;;;;;;;;4974559;28;20585;-76
2021/09/27 13:56:07;;;;;;;13.50;9.50;;;;;;;;;;4974837;28;20722;-77
2021/09/27 13:58:33;;;;;;;9.47;8.57;;;;;;;;;;4973565;28;20986;-76
2021/09/27 14:00:58;;;;;;;12.83;7.10;;;;;;;;;;4972222;28;20446;-76
2021/09/27 14:03:27;;;;;;;13.23;6.93;;;;;;;;;;4973526;28;20217;-76
2021/09/27 14:05:52;;;;;;;9.80;6.60;;;;;;;;;;4973417;28;20596;-76
2021/09/27 14:08:18;;;;;;;7.10;6.30;;;;;;;;;;4971014;28;20475;-75
2021/09/27 14:10:44;;;;;;;7.80;6.40;;;;;;;;;;4974049;28;20265;-76
2021/09/27 14:13:11;;;;;;;8.00;6.40;;;;;;;;;;4970951;28;20217;-76
2021/09/27 14:15:37;;;;;;;6.23;5.50;;;;;;;;;;4972232;28;20441;-75
2021/09/27 14:18:03;;;;;;;11.87;7.40;;;;;;;;;;4972771;28;20433;-76
2021/09/27 14:20:28;;;;;;;7.27;6.50;;;;;;;;;;4977650;28;20484;-75
2021/09/27 14:22:54;;;;;;;6.03;5.40;;;;;;;;;;4974004;28;20305;-76
2021/09/27 14:25:19;;;;;;;8.97;4.83;;;;;;;;;;4975304;28;20249;-76
2021/09/27 14:27:45;;;;;;;6.37;4.67;;;;;;;;;;4975404;28;20216;-77
2021/09/27 14:30:10;;;;;;;9.23;5.67;;;;;;;;;;4969853;28;20336;-76
2021/09/27 14:32:36;;;;;;;8.47;5.23;;;;;;;;;;4975029;28;20296;-76
2021/09/27 14:35:01;;;;;;;5.00;4.60;;;;;;;;;;4979526;28;20186;-76
2021/09/27 14:37:29;;;;;;;6.50;4.97;;;;;;;;;;4978547;28;20190;-77